Pagrindinis puslapis
METAR-TAF:

METAR-TAF

Oro uostai :

Odensė, Danija

platuma: 55-29N, ilguma: 010-20E, Aukštis: 17 m

Dabartinis oras

Ataskaita buvo paskelbta 14 valandos ir 8 minutes, ne 15:50 UTC
Vėjas 11 kt iš Pietvakarių, svyruoja nuo Pietryčių ir Vakarų/Šiaurės Vakarų
Temperatūra 16°C
Drėgmė 94%
Slėgis 1006 hPa
Matomumas 10 km arba daugiau
Mažai debesys ne aukštis 1000 ft
Su prošvaistėmis ne aukštis 1400 ft
Apsiniaukę ne aukštis 2400 ft
lietus

METAR: EKOD 041550Z 22011KT 140V290 9999 RA FEW010 BKN014 OVC024 16/15 Q1006

Laikas: 07:58 (05:58 UTC)

Prognozė

Ataskaita buvo paskelbta 21 valandos ir 4 minutes, ne 08:54 UTC
Prognozė galioja nuo 04 metu 09 UTC su 04 metu 15 UTC
Vėjas 14 kt iš Pietų/Pietvakarių
Matomumas: 8000 m
Su prošvaistėmis ne aukštis 1500 ft
Laikinai
nuo 04 metu 09 UTC su 04 metu 15 UTC
Matomumas: 3000 m
Su prošvaistėmis ne aukštis 500 ft
lietus, dulksna, rūkana

TAF: EKOD 040854Z 0409/0415 21014KT 8000 BKN015 TEMPO 0409/0415 3000 RADZ BR BKN005

Orai ataskaitas ir orų prognozės (METAR, TAF).

turimą stotys yra geltonos ir raudonos taškus žemėlapyje.

Perkelti pele per norėdami pamatyti stoties vardą.

Tada spustelėkite, norėdami matyti oro stebėjimo ir prognozės.

Norėdami pakeisti žemėlapį: spustelėkite ant žalios mygtukų su juodo kryžiaus žemyn,; žalią mygtuką su brūkšneliu, jei norite nutolinti; arba žalių rodyklių gretimoms žemėlapius.


METAR-TAF: